Ida — C4CZ2 — position and weather

sailwx.info

Track history (hours):
 
Tides and Currents Weather Stations Pressure Air Temp Water Temp Dewpoint Dewpoint Depression Visibility Wind Speed Wind Dir Waves Ship Positions

Ida

Last reported at 2018-Apr-24 23:08 UTC. Time now 2018-Apr-26 21:18 UTC.
Position N 54°38' E 012°37'.

Length 82 m; draft 3.2 m.

Type: Cargo ship. MMSI: 210319000.

Date/timePositionNaut miles runAvg speedWind from/ knotsBaromVisibWave heightAir tempDewpointWater temp
2018-Apr-24 23:08N 54°38' E 012°37'1 9.8
2018-Apr-24 23:00N 54°38' E 012°35'13 9.7
2018-Apr-24 21:41N 54°31' E 012°16'2 9.6
2018-Apr-24 21:31N 54°29' E 012°15'5 9.5
2018-Apr-24 21:00N 54°25' E 012°11'5 9.2
2018-Apr-24 20:30N 54°25' E 012°03'5 9.7
2018-Apr-24 20:00N 54°25' E 011°55'7 9.7
2018-Apr-24 19:15N 54°26' E 011°42'2 9.8
2018-Apr-24 19:00N 54°27' E 011°38'5 9.7
2018-Apr-24 18:31N 54°29' E 011°31'5 9.8
2018-Apr-24 18:00N 54°31' E 011°23'5 9.9
2018-Apr-24 17:30N 54°33' E 011°15'510.0
2018-Apr-24 17:01N 54°35' E 011°07'510.2
2018-Apr-24 16:30N 54°34' E 010°59'5 9.9
2018-Apr-24 16:01N 54°34' E 010°50'5 9.8
2018-Apr-24 15:31N 54°33' E 010°42'5 9.6
2018-Apr-24 15:01N 54°32' E 010°33'29 6.3
2018-Apr-24 10:29N 54°22' E 009°48'4 8.5
2018-Apr-24 10:01N 54°19' E 009°43'4 7.7
2018-Apr-24 09:31N 54°16' E 009°38'1 2.6
2018-Apr-24 09:00N 54°15' E 009°37'3 6.3
2018-Apr-24 08:30N 54°13' E 009°35'4 8.4
2018-Apr-24 08:00N 54°11' E 009°28'4 8.2
2018-Apr-24 07:30N 54°09' E 009°22'4 8.3
2018-Apr-24 06:59N 54°05' E 009°19'4 8.3
2018-Apr-24 06:30N 54°01' E 009°18'4 8.2
2018-Apr-24 06:00N 53°57' E 009°15'4 8.6
2018-Apr-24 05:30N 53°54' E 009°10'1 1.5
2018-Apr-24 05:00N 53°54' E 009°09'2 3.4
2018-Apr-24 04:31N 53°53' E 009°06'1 2.3
2018-Apr-24 04:00N 53°53' E 009°04'4 7.4
2018-Apr-24 03:30N 53°51' E 008°59'4 7.5
2018-Apr-24 03:01N 53°50' E 008°52'4 7.4
2018-Apr-24 02:30N 53°51' E 008°46'4 7.5
2018-Apr-24 02:00N 53°53' E 008°42'4 7.9
2018-Apr-24 01:30N 53°57' E 008°38'7 7.9
2018-Apr-24 00:35N 53°59' E 008°26'2 6.8
2018-Apr-24 00:20N 53°59' E 008°23'3 7.0
2018-Apr-23 23:56N 53°59' E 008°19'10 9.2
2018-Apr-23 22:53N 53°58' E 008°03'3 7.6
2018-Apr-23 22:30N 53°56' E 007°59'5 8.9
2018-Apr-23 21:58N 53°53' E 008°06'5 9.6
2018-Apr-23 21:29N 53°48' E 008°08'511.6
2018-Apr-23 21:00N 53°44' E 008°14'611.0
2018-Apr-23 20:30N 53°41' E 008°21'510.8
2018-Apr-23 20:00N 53°37' E 008°28'510.9
2018-Apr-23 19:30N 53°33' E 008°34'510.1
2018-Apr-23 19:00N 53°28' E 008°30'510.1
2018-Apr-23 18:30N 53°23' E 008°30'4 8.6
2018-Apr-23 18:00N 53°19' E 008°29'4 8.2
2018-Apr-23 17:31N 53°15' E 008°29'4 7.7
2018-Apr-23 17:01N 53°12' E 008°32'4 7.6
2018-Apr-23 16:31N 53°10' E 008°37'4 7.3
2018-Apr-23 16:00N 53°07' E 008°42'2 4.7
2018-Apr-23 15:30N 53°07' E 008°45'0 0.0
2018-Apr-23 15:00N 53°07' E 008°45'0 0.0
2018-Apr-23 14:30N 53°07' E 008°45'0 0.0
2018-Apr-23 14:00N 53°07' E 008°45'0 0.0
2018-Apr-23 13:30N 53°07' E 008°45'0 0.0
2018-Apr-23 13:00N 53°07' E 008°45'0 0.0
2018-Apr-23 12:30N 53°07' E 008°45'0 0.0
2018-Apr-23 12:00N 53°07' E 008°45'0 0.0
2018-Apr-23 11:30N 53°07' E 008°45'0 0.0
2018-Apr-23 11:00N 53°07' E 008°45'0 0.0
2018-Apr-23 10:30N 53°07' E 008°45'0 0.0
2018-Apr-23 10:00N 53°07' E 008°45'0 0.0
2018-Apr-23 09:30N 53°07' E 008°45'0 0.0
2018-Apr-23 09:00N 53°07' E 008°45'0 0.0
2018-Apr-23 08:30N 53°07' E 008°45'0 0.0
2018-Apr-23 08:00N 53°07' E 008°45'0 0.0
2018-Apr-23 07:30N 53°07' E 008°45'0 0.0
2018-Apr-23 07:00N 53°07' E 008°45'0 0.0
2018-Apr-23 06:30N 53°07' E 008°45'0 0.0
2018-Apr-23 06:00N 53°07' E 008°45'0 0.0
2018-Apr-23 05:30N 53°07' E 008°45'0 0.0
2018-Apr-23 05:00N 53°07' E 008°45'0 0.0
2018-Apr-23 04:30N 53°07' E 008°45'0 0.0
2018-Apr-23 04:00N 53°07' E 008°45'0 0.0
2018-Apr-23 03:30N 53°07' E 008°45'0 0.0
2018-Apr-23 03:00N 53°07' E 008°45'0 0.0
2018-Apr-23 02:30N 53°07' E 008°45'0 0.0
2018-Apr-23 02:00N 53°07' E 008°45'0 0.0
2018-Apr-23 01:30N 53°07' E 008°45'0 0.0
2018-Apr-23 01:00N 53°07' E 008°45'0 0.0
2018-Apr-23 00:30N 53°07' E 008°45'0 0.0
2018-Apr-23 00:00N 53°07' E 008°45'0 0.0
2018-Apr-22 23:30N 53°07' E 008°45'0 0.0
2018-Apr-22 23:00N 53°07' E 008°45'0 0.0
2018-Apr-22 22:30N 53°07' E 008°45'0 0.0
2018-Apr-22 22:00N 53°07' E 008°45'0 0.0
2018-Apr-22 21:30N 53°07' E 008°45'0 0.0
2018-Apr-22 21:00N 53°07' E 008°45'0 0.0
2018-Apr-22 20:30N 53°07' E 008°45'0 0.0
2018-Apr-22 20:00N 53°07' E 008°45'0 0.0
2018-Apr-22 19:30N 53°07' E 008°45'0 0.0
2018-Apr-22 19:00N 53°07' E 008°45'0 0.0
2018-Apr-22 18:30N 53°07' E 008°45'0 0.0
2018-Apr-22 17:58N 53°07' E 008°45'0 0.0
2018-Apr-22 17:28N 53°07' E 008°45'0 0.0
2018-Apr-22 16:58N 53°07' E 008°45'0 0.0
2018-Apr-22 16:28N 53°07' E 008°45'0 0.0
2018-Apr-22 15:58N 53°07' E 008°45'0 0.0
2018-Apr-22 15:28N 53°07' E 008°45'0 0.0
2018-Apr-22 14:58N 53°07' E 008°45'0 0.0
2018-Apr-22 14:28N 53°07' E 008°45'0 0.0
2018-Apr-22 13:58N 53°07' E 008°45'0 0.0
2018-Apr-22 13:29N 53°07' E 008°45'0 0.0
2018-Apr-22 12:58N 53°07' E 008°45'0 0.0
2018-Apr-22 12:28N 53°07' E 008°45'0 0.0
2018-Apr-22 11:58N 53°07' E 008°45'0 0.0
2018-Apr-22 11:29N 53°07' E 008°45'0 0.0
2018-Apr-22 10:59N 53°07' E 008°45'0 0.0
2018-Apr-22 10:28N 53°07' E 008°45'0 0.0
2018-Apr-22 09:58N 53°07' E 008°45'0 0.0
2018-Apr-22 09:28N 53°07' E 008°45'0 0.0
2018-Apr-22 08:58N 53°07' E 008°45'0 0.0
2018-Apr-22 08:29N 53°07' E 008°45'0 0.0
2018-Apr-22 07:58N 53°07' E 008°45'0 0.0
2018-Apr-22 07:28N 53°07' E 008°45'0 0.0
2018-Apr-22 06:58N 53°07' E 008°45'0 0.0
2018-Apr-22 06:28N 53°07' E 008°45'0 0.0
2018-Apr-22 05:58N 53°07' E 008°45'0 0.0
2018-Apr-22 05:29N 53°07' E 008°45'0 0.0
2018-Apr-22 04:58N 53°07' E 008°45'0 0.0
2018-Apr-22 04:28N 53°07' E 008°45'0 0.0
2018-Apr-22 03:59N 53°07' E 008°45'0 0.0
2018-Apr-22 03:28N 53°07' E 008°45'0 0.0
2018-Apr-22 02:59N 53°07' E 008°45'0 0.0
2018-Apr-22 02:28N 53°07' E 008°45'0 0.0
2018-Apr-22 01:58N 53°07' E 008°45'0 0.0
2018-Apr-22 01:28N 53°07' E 008°45'0 0.0
2018-Apr-22 00:58N 53°07' E 008°45'0 0.0
2018-Apr-22 00:28N 53°07' E 008°45'0 0.0
2018-Apr-21 23:58N 53°07' E 008°45'0 0.0
2018-Apr-21 23:28N 53°07' E 008°45'0 0.0
2018-Apr-21 22:58N 53°07' E 008°45'0 0.0
2018-Apr-21 22:29N 53°07' E 008°45'0 0.0
2018-Apr-21 21:58N 53°07' E 008°45'0 0.0
2018-Apr-21 21:28N 53°07' E 008°45'0 0.0
2018-Apr-21 20:59N 53°07' E 008°45'0 0.0
2018-Apr-21 20:28N 53°07' E 008°45'0 0.0
2018-Apr-21 19:59N 53°07' E 008°45'0 0.0
2018-Apr-21 19:29N 53°07' E 008°45'0 0.0
2018-Apr-21 18:59N 53°07' E 008°45'0 0.0
2018-Apr-21 18:29N 53°07' E 008°45'0 0.0
2018-Apr-21 17:58N 53°07' E 008°45'0 0.0
2018-Apr-21 17:29N 53°07' E 008°45'0 0.0
2018-Apr-21 16:58N 53°07' E 008°45'0 0.0
2018-Apr-21 16:29N 53°07' E 008°45'0 0.0
2018-Apr-21 15:58N 53°07' E 008°45'0 0.0
2018-Apr-21 15:28N 53°07' E 008°45'0 0.0
2018-Apr-21 14:59N 53°07' E 008°45'0 0.0
2018-Apr-21 14:28N 53°07' E 008°45'0 0.0
2018-Apr-21 13:58N 53°07' E 008°45'0 0.0
2018-Apr-21 13:29N 53°07' E 008°45'0 0.0
2018-Apr-21 12:59N 53°07' E 008°45'0 0.0
2018-Apr-21 12:28N 53°07' E 008°45'0 0.0
2018-Apr-21 11:59N 53°07' E 008°45'0 0.0
2018-Apr-21 11:28N 53°07' E 008°45'0 0.0
2018-Apr-21 10:58N 53°07' E 008°45'0 0.0
2018-Apr-21 10:28N 53°07' E 008°45'0 0.0
2018-Apr-21 09:58N 53°07' E 008°45'0 0.0
2018-Apr-21 09:29N 53°07' E 008°45'0 0.0
2018-Apr-21 08:58N 53°07' E 008°45'0 0.0
2018-Apr-21 08:28N 53°07' E 008°45'0 0.0
2018-Apr-21 07:58N 53°07' E 008°45'0 0.0
2018-Apr-21 07:29N 53°07' E 008°45'0 0.0
2018-Apr-21 06:58N 53°07' E 008°45'0 0.0
2018-Apr-21 06:28N 53°07' E 008°45'0 0.0
2018-Apr-21 05:58N 53°07' E 008°45'0 0.0
2018-Apr-21 05:28N 53°07' E 008°45'0 0.0
2018-Apr-21 04:58N 53°07' E 008°45'0 0.0
2018-Apr-21 04:28N 53°07' E 008°45'0 0.0
2018-Apr-21 03:58N 53°07' E 008°45'0 0.0
2018-Apr-21 03:28N 53°07' E 008°45'0 0.0
2018-Apr-21 02:58N 53°07' E 008°45'0 0.0
2018-Apr-21 02:28N 53°07' E 008°45'0 0.0
2018-Apr-21 01:58N 53°07' E 008°45'0 0.0
2018-Apr-21 01:29N 53°07' E 008°45'0 0.0
2018-Apr-21 00:58N 53°07' E 008°45'0 0.0
2018-Apr-21 00:28N 53°07' E 008°45'0 0.0
2018-Apr-20 23:58N 53°07' E 008°45'0 0.0
2018-Apr-20 23:29N 53°07' E 008°45'0 0.0
2018-Apr-20 22:58N 53°07' E 008°45'0 0.0
2018-Apr-20 22:28N 53°07' E 008°45'0 0.0
2018-Apr-20 21:59N 53°07' E 008°45'0 0.0
2018-Apr-20 21:28N 53°07' E 008°45'0 0.0
2018-Apr-20 20:58N 53°07' E 008°45'0 0.0
2018-Apr-20 20:29N 53°07' E 008°45'0 0.0
2018-Apr-20 19:58N 53°07' E 008°45'0 0.0
2018-Apr-20 19:28N 53°07' E 008°45'0 0.0
2018-Apr-20 18:58N 53°07' E 008°45'0 0.0
2018-Apr-20 18:28N 53°07' E 008°45'0 0.0
2018-Apr-20 17:59N 53°07' E 008°45'0 0.0
2018-Apr-20 17:29N 53°07' E 008°45'0 0.0
2018-Apr-20 16:59N 53°07' E 008°45'0 0.0
2018-Apr-20 16:29N 53°07' E 008°45'0 0.0
2018-Apr-20 15:59N 53°07' E 008°45'0 0.0
2018-Apr-20 15:29N 53°07' E 008°45'0 0.0
2018-Apr-20 14:58N 53°07' E 008°45'0 0.0
2018-Apr-20 14:30N 53°07' E 008°45'1 1.6
2018-Apr-20 14:00N 53°07' E 008°44'4 7.9
2018-Apr-20 13:30N 53°08' E 008°38'5 9.4
2018-Apr-20 13:00N 53°11' E 008°32'510.4
2018-Apr-20 12:30N 53°16' E 008°29'510.6
2018-Apr-20 12:00N 53°22' E 008°30'510.9
2018-Apr-20 11:30N 53°27' E 008°29'5 9.7
2018-Apr-20 11:00N 53°31' E 008°33'4 7.5
2018-Apr-20 10:30N 53°35' E 008°31'4 7.6
2018-Apr-20 10:00N 53°38' E 008°27'4 7.8
2018-Apr-20 09:30N 53°40' E 008°22'4 7.9
2018-Apr-20 09:00N 53°43' E 008°17'4 7.8
2018-Apr-20 08:30N 53°45' E 008°12'3 6.9
2018-Apr-20 08:00N 53°48' E 008°08'4 7.4
2018-Apr-20 07:30N 53°52' E 008°07'3 6.7
2018-Apr-20 07:00N 53°54' E 008°03'4 7.6
2018-Apr-20 06:30N 53°55' E 007°57'3 6.1
2018-Apr-20 06:00N 53°58' E 007°56'4 8.7
2018-Apr-20 05:30N 54°00' E 008°03'510.0
2018-Apr-20 05:00N 54°00' E 008°11'510.9
2018-Apr-20 04:30N 53°60' E 008°20'611.1
2018-Apr-20 04:00N 53°59' E 008°30'5 9.4
2018-Apr-20 03:30N 53°57' E 008°37'4 7.5
2018-Apr-20 03:00N 53°54' E 008°41'3 6.9
2018-Apr-20 02:30N 53°52' E 008°45'3 5.8
2018-Apr-20 02:00N 53°51' E 008°49'3 5.9
2018-Apr-20 01:30N 53°51' E 008°54'3 5.3
2018-Apr-20 01:01N 53°51' E 008°59'3 5.2
2018-Apr-20 00:30N 53°52' E 009°03'3 6.1
2018-Apr-20 00:00N 53°53' E 009°08'1 1.4
2018-Apr-19 23:30N 53°54' E 009°09'1 1.3
2018-Apr-19 23:01N 53°54' E 009°09'3 5.4
2018-Apr-19 22:30N 53°56' E 009°13'4 8.3
2018-Apr-19 22:00N 53°59' E 009°17'4 7.1
2018-Apr-19 21:31N 54°03' E 009°18'4 8.4
2018-Apr-19 21:00N 54°07' E 009°20'2 4.8
2018-Apr-19 20:30N 54°09' E 009°22'3 6.4
2018-Apr-19 20:00N 54°10' E 009°27'4 7.8
2018-Apr-19 19:30N 54°12' E 009°33'1 2.9
2018-Apr-19 19:00N 54°13' E 009°35'3 6.4
2018-Apr-19 18:30N 54°16' E 009°37'3 6.3
2018-Apr-19 18:00N 54°18' E 009°41'3 6.4
2018-Apr-19 17:30N 54°20' E 009°45'3 6.9
2018-Apr-19 17:00N 54°22' E 009°50'14 4.8
2018-Apr-19 14:08N 54°25' E 010°13'1 8.6
2018-Apr-19 14:00N 54°26' E 010°14'6 8.3
2018-Apr-19 13:19N 54°31' E 010°20'7 8.7
2018-Apr-19 12:33N 54°33' E 010°31'0 8.7
2018-Apr-19 12:30N 54°33' E 010°31'4 8.6
2018-Apr-19 12:00N 54°34' E 010°39'4 8.7
2018-Apr-19 11:30N 54°35' E 010°46'4 8.3
2018-Apr-19 11:00N 54°35' E 010°53'4 7.9
2018-Apr-19 10:30N 54°36' E 010°60'4 8.0
2018-Apr-19 10:00N 54°36' E 011°07'4 7.5
2018-Apr-19 09:30N 54°36' E 011°13'3 7.0
2018-Apr-19 09:00N 54°34' E 011°18'4 7.7
2018-Apr-19 08:30N 54°32' E 011°24'4 8.4
2018-Apr-19 08:01N 54°30' E 011°31'4 8.0
2018-Apr-19 07:30N 54°29' E 011°37'4 8.4
2018-Apr-19 07:00N 54°27' E 011°44'5 8.3
2018-Apr-19 06:22N 54°23' E 011°50'3 8.9
2018-Apr-19 06:00N 54°21' E 011°54'4 8.9
2018-Apr-19 05:30N 54°17' E 011°58'4 8.8
2018-Apr-19 05:00N 54°14' E 012°03'4 8.1
2018-Apr-19 04:30N 54°10' E 012°06'1 1.2
2018-Apr-19 03:38N 54°09' E 012°07'0 0.0
2018-Apr-19 03:26N 54°09' E 012°07'0 0.0
2018-Apr-19 02:59N 54°09' E 012°07'0 0.0
2018-Apr-19 00:14N 54°09' E 012°07'0 0.0
2018-Apr-18 23:59N 54°09' E 012°07'0 0.0
2018-Apr-18 20:23N 54°09' E 012°07'0 0.0
2018-Apr-18 17:41N 54°09' E 012°07'0 0.0
2018-Apr-18 17:11N 54°09' E 012°07'0 0.0
2018-Apr-18 16:56N 54°09' E 012°07'0 0.0
2018-Apr-18 16:26N 54°09' E 012°07'0 0.0
2018-Apr-18 14:44N 54°09' E 012°07'0 0.0
2018-Apr-18 14:26N 54°09' E 012°07'0 0.0
2018-Apr-18 13:44N 54°09' E 012°07'0 0.0
2018-Apr-18 13:29N 54°09' E 012°07'0 0.0
2018-Apr-18 12:59N 54°09' E 012°07'0 0.0
2018-Apr-18 11:11N 54°09' E 012°07'0 0.0
2018-Apr-18 10:59N 54°09' E 012°07'0 0.0
2018-Apr-18 10:20N 54°09' E 012°07'0 0.0
2018-Apr-18 09:56N 54°09' E 012°07'0 0.3
2018-Apr-18 09:27N 54°09' E 012°07'2 5.3
2018-Apr-18 09:01N 54°11' E 012°05'6 5.0
2018-Apr-18 07:45N 54°16' E 011°58'1 3.6
2018-Apr-18 07:30N 54°17' E 011°57'2 3.9
2018-Apr-18 07:00N 54°18' E 011°54'4 5.3
2018-Apr-18 06:17N 54°20' E 011°49'3 7.9
2018-Apr-18 05:53N 54°22' E 011°44'4 8.8
2018-Apr-18 05:26N 54°24' E 011°39'4 9.1
2018-Apr-18 05:00N 54°26' E 011°33'5 9.7
2018-Apr-18 04:30N 54°29' E 011°27'5 9.4
2018-Apr-18 04:00N 54°32' E 011°20'5 9.9
2018-Apr-18 03:30N 54°34' E 011°12'5 9.6
2018-Apr-18 03:00N 54°35' E 011°04'5 9.4
2018-Apr-18 02:30N 54°34' E 010°56'5 9.4
2018-Apr-18 02:00N 54°34' E 010°48'5 9.3
2018-Apr-18 01:30N 54°33' E 010°40'5 9.3
2018-Apr-18 01:00N 54°32' E 010°32'28 6.1
2018-Apr-17 20:25N 54°22' E 009°48'2 3.9
2018-Apr-17 20:00N 54°21' E 009°46'2 3.4
2018-Apr-17 19:30N 54°20' E 009°43'3 5.4
2018-Apr-17 19:00N 54°18' E 009°41'0 0.0
2018-Apr-17 18:29N 54°18' E 009°41'0 0.0
2018-Apr-17 17:56N 54°18' E 009°41'0 0.0
2018-Apr-17 17:29N 54°18' E 009°41'0 0.0
2018-Apr-17 16:59N 54°18' E 009°41'0 0.0
2018-Apr-17 16:29N 54°18' E 009°41'0 0.0
2018-Apr-17 15:59N 54°18' E 009°41'0 0.0
2018-Apr-17 15:29N 54°18' E 009°41'0 0.0
2018-Apr-17 14:59N 54°18' E 009°41'0 0.0
2018-Apr-17 14:29N 54°18' E 009°41'0 0.0
2018-Apr-17 13:56N 54°18' E 009°41'0 0.0
2018-Apr-17 13:29N 54°18' E 009°41'0 0.0
2018-Apr-17 12:59N 54°18' E 009°41'0 0.0
2018-Apr-17 12:29N 54°18' E 009°41'0 0.0
2018-Apr-17 11:59N 54°18' E 009°41'0 0.0
2018-Apr-17 11:29N 54°18' E 009°41'0 0.0
2018-Apr-17 10:59N 54°18' E 009°41'0 0.0
2018-Apr-17 10:29N 54°18' E 009°41'0 0.0
2018-Apr-17 09:56N 54°18' E 009°41'0 0.0
2018-Apr-17 09:29N 54°18' E 009°41'0 0.0
2018-Apr-17 08:59N 54°18' E 009°41'0 0.0
2018-Apr-17 08:29N 54°18' E 009°41'0 0.0
2018-Apr-17 07:59N 54°18' E 009°41'0 0.0
2018-Apr-17 07:26N 54°18' E 009°41'0 0.0
2018-Apr-17 06:59N 54°18' E 009°41'0 0.0
2018-Apr-17 06:29N 54°18' E 009°41'0 0.0
2018-Apr-17 05:59N 54°18' E 009°41'0 0.0
2018-Apr-17 05:29N 54°18' E 009°41'0 0.0
2018-Apr-17 04:59N 54°18' E 009°41'0 0.0
2018-Apr-17 04:29N 54°18' E 009°41'0 0.0
2018-Apr-17 03:59N 54°18' E 009°41'0 0.0
2018-Apr-17 03:29N 54°18' E 009°41'0 0.0
2018-Apr-17 02:56N 54°18' E 009°41'0 0.0
2018-Apr-17 02:29N 54°18' E 009°41'0 0.0
2018-Apr-17 01:59N 54°18' E 009°41'0 0.0
2018-Apr-17 01:29N 54°18' E 009°41'0 0.0
2018-Apr-17 00:59N 54°18' E 009°41'0 0.0
2018-Apr-17 00:26N 54°18' E 009°41'0 0.0
2018-Apr-16 23:59N 54°18' E 009°41'0 0.0
2018-Apr-16 23:29N 54°18' E 009°41'0 0.0
2018-Apr-16 22:59N 54°18' E 009°41'0 0.0
2018-Apr-16 22:29N 54°18' E 009°41'0 0.0
2018-Apr-16 21:59N 54°18' E 009°41'0 0.0
2018-Apr-16 21:29N 54°18' E 009°41'0 0.0
2018-Apr-16 20:59N 54°18' E 009°41'0 0.0
2018-Apr-16 20:26N 54°18' E 009°41'0 0.0
2018-Apr-16 19:59N 54°18' E 009°41'0 0.0
2018-Apr-16 19:29N 54°18' E 009°41'0 0.0
2018-Apr-16 18:59N 54°18' E 009°41'0 0.0
2018-Apr-16 18:29N 54°18' E 009°41'0 0.0
2018-Apr-16 17:59N 54°18' E 009°41'0 0.0
2018-Apr-16 17:29N 54°18' E 009°41'0 0.0
2018-Apr-16 16:59N 54°18' E 009°41'0 0.0
2018-Apr-16 16:29N 54°18' E 009°41'0 0.0
2018-Apr-16 15:59N 54°18' E 009°41'0 0.0
2018-Apr-16 15:29N 54°18' E 009°41'0 0.0
2018-Apr-16 14:59N 54°18' E 009°41'0 0.1
2018-Apr-16 14:29N 54°18' E 009°41'0 0.0
2018-Apr-16 13:59N 54°18' E 009°41'0 0.0
2018-Apr-16 13:26N 54°18' E 009°41'0 0.0
2018-Apr-16 12:59N 54°18' E 009°41'0 0.0
2018-Apr-16 12:26N 54°18' E 009°41'0 0.1
2018-Apr-16 12:00N 54°18' E 009°41'2 4.3
2018-Apr-16 11:30N 54°19' E 009°43'0 0.6
2018-Apr-16 11:01N 54°20' E 009°43'2 3.4
2018-Apr-16 10:30N 54°21' E 009°45'3 6.7
2018-Apr-16 10:00N 54°22' E 009°51'22 5.1
2018-Apr-16 05:45N 54°31' E 010°24'3 5.9
2018-Apr-16 05:12N 54°33' E 010°29'1 5.8
2018-Apr-16 04:59N 54°33' E 010°31'3 5.6
2018-Apr-16 04:30N 54°34' E 010°35'3 5.9
2018-Apr-16 04:00N 54°35' E 010°40'3 6.0
2018-Apr-16 03:30N 54°35' E 010°45'3 5.9
2018-Apr-16 03:00N 54°35' E 010°50'3 5.9
2018-Apr-16 02:30N 54°36' E 010°56'3 6.0
2018-Apr-16 02:00N 54°36' E 011°01'3 6.1
2018-Apr-16 01:30N 54°36' E 011°06'3 6.1
2018-Apr-16 01:00N 54°36' E 011°11'3 6.4
2018-Apr-16 00:30N 54°34' E 011°16'3 6.4
2018-Apr-16 00:00N 54°33' E 011°21'3 6.1
2018-Apr-15 23:30N 54°32' E 011°26'3 6.2
2018-Apr-15 23:00N 54°31' E 011°31'3 6.3
2018-Apr-15 22:30N 54°30' E 011°36'3 6.6
2018-Apr-15 22:00N 54°28' E 011°41'3 6.6
2018-Apr-15 21:30N 54°27' E 011°47'3 6.5
2018-Apr-15 21:00N 54°27' E 011°52'3 6.6
2018-Apr-15 20:30N 54°27' E 011°58'3 6.5
2018-Apr-15 20:00N 54°27' E 012°03'3 6.3
2018-Apr-15 19:30N 54°28' E 012°09'3 5.7
2018-Apr-15 19:00N 54°30' E 012°11'66 6.6
2018-Apr-15 08:55N 55°02' E 013°52'4 6.5
2018-Apr-15 08:14N 55°03' E 013°59'2 6.7
2018-Apr-15 07:54N 55°04' E 014°03'4 6.4
2018-Apr-15 07:11N 55°07' E 014°08'3 6.3
2018-Apr-15 06:43N 55°09' E 014°11'1 6.4
2018-Apr-15 06:30N 55°11' E 014°13'4 6.6
2018-Apr-15 05:51N 55°14' E 014°18'4 6.7
2018-Apr-15 05:11N 55°17' E 014°23'1 6.6
2018-Apr-15 04:59N 55°18' E 014°25'4 6.7
2018-Apr-15 04:21N 55°21' E 014°30'2 7.0
2018-Apr-15 04:00N 55°23' E 014°32'3 6.8
2018-Apr-15 03:30N 55°26' E 014°36'4 6.8
2018-Apr-15 02:53N 55°28' E 014°43'3 6.4
2018-Apr-15 02:28N 55°29' E 014°47'4 6.4
2018-Apr-15 01:52N 55°31' E 014°53'4 6.6
2018-Apr-15 01:19N 55°32' E 014°59'2 6.7
2018-Apr-15 01:00N 55°33' E 015°02'5 6.8
2018-Apr-15 00:18N 55°36' E 015°10'2 6.8
2018-Apr-15 00:00N 55°37' E 015°13'3 6.8
2018-Apr-14 23:30N 55°37' E 015°19'  
Track history (hours):
 
Tides and Currents Weather Stations Pressure Air Temp Water Temp Dewpoint Dewpoint Depression Visibility Wind Speed Wind Dir Waves Ship Positions

Ida

Last reported at 2018-Apr-24 23:08 UTC. Time now 2018-Apr-26 21:18 UTC.
Position N 54°38' E 012°37'.

Length 82 m; draft 3.2 m.

Type: Cargo ship. MMSI: 210319000.

Date/timePositionNaut miles runAvg speedWind from/ knotsBaromVisibWave heightAir tempDewpointWater temp
2018-Apr-24 23:08N 54°38' E 012°37'1 9.8
2018-Apr-24 23:00N 54°38' E 012°35'13 9.7
2018-Apr-24 21:41N 54°31' E 012°16'2 9.6
2018-Apr-24 21:31N 54°29' E 012°15'5 9.5
2018-Apr-24 21:00N 54°25' E 012°11'5 9.2
2018-Apr-24 20:30N 54°25' E 012°03'5 9.7
2018-Apr-24 20:00N 54°25' E 011°55'7 9.7
2018-Apr-24 19:15N 54°26' E 011°42'2 9.8
2018-Apr-24 19:00N 54°27' E 011°38'5 9.7
2018-Apr-24 18:31N 54°29' E 011°31'5 9.8
2018-Apr-24 18:00N 54°31' E 011°23'5 9.9
2018-Apr-24 17:30N 54°33' E 011°15'510.0
2018-Apr-24 17:01N 54°35' E 011°07'510.2
2018-Apr-24 16:30N 54°34' E 010°59'5 9.9
2018-Apr-24 16:01N 54°34' E 010°50'5 9.8
2018-Apr-24 15:31N 54°33' E 010°42'5 9.6
2018-Apr-24 15:01N 54°32' E 010°33'29 6.3
2018-Apr-24 10:29N 54°22' E 009°48'4 8.5
2018-Apr-24 10:01N 54°19' E 009°43'4 7.7
2018-Apr-24 09:31N 54°16' E 009°38'1 2.6
2018-Apr-24 09:00N 54°15' E 009°37'3 6.3
2018-Apr-24 08:30N 54°13' E 009°35'4 8.4
2018-Apr-24 08:00N 54°11' E 009°28'4 8.2
2018-Apr-24 07:30N 54°09' E 009°22'4 8.3
2018-Apr-24 06:59N 54°05' E 009°19'4 8.3
2018-Apr-24 06:30N 54°01' E 009°18'4 8.2
2018-Apr-24 06:00N 53°57' E 009°15'4 8.6
2018-Apr-24 05:30N 53°54' E 009°10'1 1.5
2018-Apr-24 05:00N 53°54' E 009°09'2 3.4
2018-Apr-24 04:31N 53°53' E 009°06'1 2.3
2018-Apr-24 04:00N 53°53' E 009°04'4 7.4
2018-Apr-24 03:30N 53°51' E 008°59'4 7.5
2018-Apr-24 03:01N 53°50' E 008°52'4 7.4
2018-Apr-24 02:30N 53°51' E 008°46'4 7.5
2018-Apr-24 02:00N 53°53' E 008°42'4 7.9
2018-Apr-24 01:30N 53°57' E 008°38'7 7.9
2018-Apr-24 00:35N 53°59' E 008°26'2 6.8
2018-Apr-24 00:20N 53°59' E 008°23'3 7.0
2018-Apr-23 23:56N 53°59' E 008°19'10 9.2
2018-Apr-23 22:53N 53°58' E 008°03'3 7.6
2018-Apr-23 22:30N 53°56' E 007°59'5 8.9
2018-Apr-23 21:58N 53°53' E 008°06'5 9.6
2018-Apr-23 21:29N 53°48' E 008°08'511.6
2018-Apr-23 21:00N 53°44' E 008°14'611.0
2018-Apr-23 20:30N 53°41' E 008°21'510.8
2018-Apr-23 20:00N 53°37' E 008°28'510.9
2018-Apr-23 19:30N 53°33' E 008°34'510.1
2018-Apr-23 19:00N 53°28' E 008°30'510.1
2018-Apr-23 18:30N 53°23' E 008°30'4 8.6
2018-Apr-23 18:00N 53°19' E 008°29'4 8.2
2018-Apr-23 17:31N 53°15' E 008°29'4 7.7
2018-Apr-23 17:01N 53°12' E 008°32'4 7.6
2018-Apr-23 16:31N 53°10' E 008°37'4 7.3
2018-Apr-23 16:00N 53°07' E 008°42'2 4.7
2018-Apr-23 15:30N 53°07' E 008°45'0 0.0
2018-Apr-23 15:00N 53°07' E 008°45'0 0.0
2018-Apr-23 14:30N 53°07' E 008°45'0 0.0
2018-Apr-23 14:00N 53°07' E 008°45'0 0.0
2018-Apr-23 13:30N 53°07' E 008°45'0 0.0
2018-Apr-23 13:00N 53°07' E 008°45'0 0.0
2018-Apr-23 12:30N 53°07' E 008°45'0 0.0
2018-Apr-23 12:00N 53°07' E 008°45'0 0.0
2018-Apr-23 11:30N 53°07' E 008°45'0 0.0
2018-Apr-23 11:00N 53°07' E 008°45'0 0.0
2018-Apr-23 10:30N 53°07' E 008°45'0 0.0
2018-Apr-23 10:00N 53°07' E 008°45'0 0.0
2018-Apr-23 09:30N 53°07' E 008°45'0 0.0
2018-Apr-23 09:00N 53°07' E 008°45'0 0.0
2018-Apr-23 08:30N 53°07' E 008°45'0 0.0
2018-Apr-23 08:00N 53°07' E 008°45'0 0.0
2018-Apr-23 07:30N 53°07' E 008°45'0 0.0
2018-Apr-23 07:00N 53°07' E 008°45'0 0.0
2018-Apr-23 06:30N 53°07' E 008°45'0 0.0
2018-Apr-23 06:00N 53°07' E 008°45'0 0.0
2018-Apr-23 05:30N 53°07' E 008°45'0 0.0
2018-Apr-23 05:00N 53°07' E 008°45'0 0.0
2018-Apr-23 04:30N 53°07' E 008°45'0 0.0
2018-Apr-23 04:00N 53°07' E 008°45'0 0.0
2018-Apr-23 03:30N 53°07' E 008°45'0 0.0
2018-Apr-23 03:00N 53°07' E 008°45'0 0.0
2018-Apr-23 02:30N 53°07' E 008°45'0 0.0
2018-Apr-23 02:00N 53°07' E 008°45'0 0.0
2018-Apr-23 01:30N 53°07' E 008°45'0 0.0
2018-Apr-23 01:00N 53°07' E 008°45'0 0.0
2018-Apr-23 00:30N 53°07' E 008°45'0 0.0
2018-Apr-23 00:00N 53°07' E 008°45'0 0.0
2018-Apr-22 23:30N 53°07' E 008°45'0 0.0
2018-Apr-22 23:00N 53°07' E 008°45'0 0.0
2018-Apr-22 22:30N 53°07' E 008°45'0 0.0
2018-Apr-22 22:00N 53°07' E 008°45'0 0.0
2018-Apr-22 21:30N 53°07' E 008°45'0 0.0
2018-Apr-22 21:00N 53°07' E 008°45'0 0.0
2018-Apr-22 20:30N 53°07' E 008°45'0 0.0
2018-Apr-22 20:00N 53°07' E 008°45'0 0.0
2018-Apr-22 19:30N 53°07' E 008°45'0 0.0
2018-Apr-22 19:00N 53°07' E 008°45'0 0.0
2018-Apr-22 18:30N 53°07' E 008°45'0 0.0
2018-Apr-22 17:58N 53°07' E 008°45'0 0.0
2018-Apr-22 17:28N 53°07' E 008°45'0 0.0
2018-Apr-22 16:58N 53°07' E 008°45'0 0.0
2018-Apr-22 16:28N 53°07' E 008°45'0 0.0
2018-Apr-22 15:58N 53°07' E 008°45'0 0.0
2018-Apr-22 15:28N 53°07' E 008°45'0 0.0
2018-Apr-22 14:58N 53°07' E 008°45'0 0.0
2018-Apr-22 14:28N 53°07' E 008°45'0 0.0
2018-Apr-22 13:58N 53°07' E 008°45'0 0.0
2018-Apr-22 13:29N 53°07' E 008°45'0 0.0
2018-Apr-22 12:58N 53°07' E 008°45'0 0.0
2018-Apr-22 12:28N 53°07' E 008°45'0 0.0
2018-Apr-22 11:58N 53°07' E 008°45'0 0.0
2018-Apr-22 11:29N 53°07' E 008°45'0 0.0
2018-Apr-22 10:59N 53°07' E 008°45'0 0.0
2018-Apr-22 10:28N 53°07' E 008°45'0 0.0
2018-Apr-22 09:58N 53°07' E 008°45'0 0.0
2018-Apr-22 09:28N 53°07' E 008°45'0 0.0
2018-Apr-22 08:58N 53°07' E 008°45'0 0.0
2018-Apr-22 08:29N 53°07' E 008°45'0 0.0
2018-Apr-22 07:58N 53°07' E 008°45'0 0.0
2018-Apr-22 07:28N 53°07' E 008°45'0 0.0
2018-Apr-22 06:58N 53°07' E 008°45'0 0.0
2018-Apr-22 06:28N 53°07' E 008°45'0 0.0
2018-Apr-22 05:58N 53°07' E 008°45'0 0.0
2018-Apr-22 05:29N 53°07' E 008°45'0 0.0
2018-Apr-22 04:58N 53°07' E 008°45'0 0.0
2018-Apr-22 04:28N 53°07' E 008°45'0 0.0
2018-Apr-22 03:59N 53°07' E 008°45'0 0.0
2018-Apr-22 03:28N 53°07' E 008°45'0 0.0
2018-Apr-22 02:59N 53°07' E 008°45'0 0.0
2018-Apr-22 02:28N 53°07' E 008°45'0 0.0
2018-Apr-22 01:58N 53°07' E 008°45'0 0.0
2018-Apr-22 01:28N 53°07' E 008°45'0 0.0
2018-Apr-22 00:58N 53°07' E 008°45'0 0.0
2018-Apr-22 00:28N 53°07' E 008°45'0 0.0
2018-Apr-21 23:58N 53°07' E 008°45'0 0.0
2018-Apr-21 23:28N 53°07' E 008°45'0 0.0
2018-Apr-21 22:58N 53°07' E 008°45'0 0.0
2018-Apr-21 22:29N 53°07' E 008°45'0 0.0
2018-Apr-21 21:58N 53°07' E 008°45'0 0.0
2018-Apr-21 21:28N 53°07' E 008°45'0 0.0
2018-Apr-21 20:59N 53°07' E 008°45'0 0.0
2018-Apr-21 20:28N 53°07' E 008°45'0 0.0
2018-Apr-21 19:59N 53°07' E 008°45'0 0.0
2018-Apr-21 19:29N 53°07' E 008°45'0 0.0
2018-Apr-21 18:59N 53°07' E 008°45'0 0.0
2018-Apr-21 18:29N 53°07' E 008°45'0 0.0
2018-Apr-21 17:58N 53°07' E 008°45'0 0.0
2018-Apr-21 17:29N 53°07' E 008°45'0 0.0
2018-Apr-21 16:58N 53°07' E 008°45'0 0.0
2018-Apr-21 16:29N 53°07' E 008°45'0 0.0
2018-Apr-21 15:58N 53°07' E 008°45'0 0.0
2018-Apr-21 15:28N 53°07' E 008°45'0 0.0
2018-Apr-21 14:59N 53°07' E 008°45'0 0.0
2018-Apr-21 14:28N 53°07' E 008°45'0 0.0
2018-Apr-21 13:58N 53°07' E 008°45'0 0.0
2018-Apr-21 13:29N 53°07' E 008°45'0 0.0
2018-Apr-21 12:59N 53°07' E 008°45'0 0.0
2018-Apr-21 12:28N 53°07' E 008°45'0 0.0
2018-Apr-21 11:59N 53°07' E 008°45'0 0.0
2018-Apr-21 11:28N 53°07' E 008°45'0 0.0
2018-Apr-21 10:58N 53°07' E 008°45'0 0.0
2018-Apr-21 10:28N 53°07' E 008°45'0 0.0
2018-Apr-21 09:58N 53°07' E 008°45'0 0.0
2018-Apr-21 09:29N 53°07' E 008°45'0 0.0
2018-Apr-21 08:58N 53°07' E 008°45'0 0.0
2018-Apr-21 08:28N 53°07' E 008°45'0 0.0
2018-Apr-21 07:58N 53°07' E 008°45'0 0.0
2018-Apr-21 07:29N 53°07' E 008°45'0 0.0
2018-Apr-21 06:58N 53°07' E 008°45'0 0.0
2018-Apr-21 06:28N 53°07' E 008°45'0 0.0
2018-Apr-21 05:58N 53°07' E 008°45'0 0.0
2018-Apr-21 05:28N 53°07' E 008°45'0 0.0
2018-Apr-21 04:58N 53°07' E 008°45'0 0.0
2018-Apr-21 04:28N 53°07' E 008°45'0 0.0
2018-Apr-21 03:58N 53°07' E 008°45'0 0.0
2018-Apr-21 03:28N 53°07' E 008°45'0 0.0
2018-Apr-21 02:58N 53°07' E 008°45'0 0.0
2018-Apr-21 02:28N 53°07' E 008°45'0 0.0
2018-Apr-21 01:58N 53°07' E 008°45'0 0.0
2018-Apr-21 01:29N 53°07' E 008°45'0 0.0
2018-Apr-21 00:58N 53°07' E 008°45'0 0.0
2018-Apr-21 00:28N 53°07' E 008°45'0 0.0
2018-Apr-20 23:58N 53°07' E 008°45'0 0.0
2018-Apr-20 23:29N 53°07' E 008°45'0 0.0
2018-Apr-20 22:58N 53°07' E 008°45'0 0.0
2018-Apr-20 22:28N 53°07' E 008°45'0 0.0
2018-Apr-20 21:59N 53°07' E 008°45'0 0.0
2018-Apr-20 21:28N 53°07' E 008°45'0 0.0
2018-Apr-20 20:58N 53°07' E 008°45'0 0.0
2018-Apr-20 20:29N 53°07' E 008°45'0 0.0
2018-Apr-20 19:58N 53°07' E 008°45'0 0.0
2018-Apr-20 19:28N 53°07' E 008°45'0 0.0
2018-Apr-20 18:58N 53°07' E 008°45'0 0.0
2018-Apr-20 18:28N 53°07' E 008°45'0 0.0
2018-Apr-20 17:59N 53°07' E 008°45'0 0.0
2018-Apr-20 17:29N 53°07' E 008°45'0 0.0
2018-Apr-20 16:59N 53°07' E 008°45'0 0.0
2018-Apr-20 16:29N 53°07' E 008°45'0 0.0
2018-Apr-20 15:59N 53°07' E 008°45'0 0.0
2018-Apr-20 15:29N 53°07' E 008°45'0 0.0
2018-Apr-20 14:58N 53°07' E 008°45'0 0.0
2018-Apr-20 14:30N 53°07' E 008°45'1 1.6
2018-Apr-20 14:00N 53°07' E 008°44'4 7.9
2018-Apr-20 13:30N 53°08' E 008°38'5 9.4
2018-Apr-20 13:00N 53°11' E 008°32'510.4
2018-Apr-20 12:30N 53°16' E 008°29'510.6
2018-Apr-20 12:00N 53°22' E 008°30'510.9
2018-Apr-20 11:30N 53°27' E 008°29'5 9.7
2018-Apr-20 11:00N 53°31' E 008°33'4 7.5
2018-Apr-20 10:30N 53°35' E 008°31'4 7.6
2018-Apr-20 10:00N 53°38' E 008°27'4 7.8
2018-Apr-20 09:30N 53°40' E 008°22'4 7.9
2018-Apr-20 09:00N 53°43' E 008°17'4 7.8
2018-Apr-20 08:30N 53°45' E 008°12'3 6.9
2018-Apr-20 08:00N 53°48' E 008°08'4 7.4
2018-Apr-20 07:30N 53°52' E 008°07'3 6.7
2018-Apr-20 07:00N 53°54' E 008°03'4 7.6
2018-Apr-20 06:30N 53°55' E 007°57'3 6.1
2018-Apr-20 06:00N 53°58' E 007°56'4 8.7
2018-Apr-20 05:30N 54°00' E 008°03'510.0
2018-Apr-20 05:00N 54°00' E 008°11'510.9
2018-Apr-20 04:30N 53°60' E 008°20'611.1
2018-Apr-20 04:00N 53°59' E 008°30'5 9.4
2018-Apr-20 03:30N 53°57' E 008°37'4 7.5
2018-Apr-20 03:00N 53°54' E 008°41'3 6.9
2018-Apr-20 02:30N 53°52' E 008°45'3 5.8
2018-Apr-20 02:00N 53°51' E 008°49'3 5.9
2018-Apr-20 01:30N 53°51' E 008°54'3 5.3
2018-Apr-20 01:01N 53°51' E 008°59'3 5.2
2018-Apr-20 00:30N 53°52' E 009°03'3 6.1
2018-Apr-20 00:00N 53°53' E 009°08'1 1.4
2018-Apr-19 23:30N 53°54' E 009°09'1 1.3
2018-Apr-19 23:01N 53°54' E 009°09'3 5.4
2018-Apr-19 22:30N 53°56' E 009°13'4 8.3
2018-Apr-19 22:00N 53°59' E 009°17'4 7.1
2018-Apr-19 21:31N 54°03' E 009°18'4 8.4
2018-Apr-19 21:00N 54°07' E 009°20'2 4.8
2018-Apr-19 20:30N 54°09' E 009°22'3 6.4
2018-Apr-19 20:00N 54°10' E 009°27'4 7.8
2018-Apr-19 19:30N 54°12' E 009°33'1 2.9
2018-Apr-19 19:00N 54°13' E 009°35'3 6.4
2018-Apr-19 18:30N 54°16' E 009°37'3 6.3
2018-Apr-19 18:00N 54°18' E 009°41'3 6.4
2018-Apr-19 17:30N 54°20' E 009°45'3 6.9
2018-Apr-19 17:00N 54°22' E 009°50'14 4.8
2018-Apr-19 14:08N 54°25' E 010°13'1 8.6
2018-Apr-19 14:00N 54°26' E 010°14'6 8.3
2018-Apr-19 13:19N 54°31' E 010°20'7 8.7
2018-Apr-19 12:33N 54°33' E 010°31'0 8.7
2018-Apr-19 12:30N 54°33' E 010°31'4 8.6
2018-Apr-19 12:00N 54°34' E 010°39'4 8.7
2018-Apr-19 11:30N 54°35' E 010°46'4 8.3
2018-Apr-19 11:00N 54°35' E 010°53'4 7.9
2018-Apr-19 10:30N 54°36' E 010°60'4 8.0
2018-Apr-19 10:00N 54°36' E 011°07'4 7.5
2018-Apr-19 09:30N 54°36' E 011°13'3 7.0
2018-Apr-19 09:00N 54°34' E 011°18'4 7.7
2018-Apr-19 08:30N 54°32' E 011°24'4 8.4
2018-Apr-19 08:01N 54°30' E 011°31'4 8.0
2018-Apr-19 07:30N 54°29' E 011°37'4 8.4
2018-Apr-19 07:00N 54°27' E 011°44'5 8.3
2018-Apr-19 06:22N 54°23' E 011°50'3 8.9
2018-Apr-19 06:00N 54°21' E 011°54'4 8.9
2018-Apr-19 05:30N 54°17' E 011°58'4 8.8
2018-Apr-19 05:00N 54°14' E 012°03'4 8.1
2018-Apr-19 04:30N 54°10' E 012°06'1 1.2
2018-Apr-19 03:38N 54°09' E 012°07'0 0.0
2018-Apr-19 03:26N 54°09' E 012°07'0 0.0
2018-Apr-19 02:59N 54°09' E 012°07'0 0.0
2018-Apr-19 00:14N 54°09' E 012°07'0 0.0
2018-Apr-18 23:59N 54°09' E 012°07'0 0.0
2018-Apr-18 20:23N 54°09' E 012°07'0 0.0
2018-Apr-18 17:41N 54°09' E 012°07'0 0.0
2018-Apr-18 17:11N 54°09' E 012°07'0 0.0
2018-Apr-18 16:56N 54°09' E 012°07'0 0.0
2018-Apr-18 16:26N 54°09' E 012°07'0 0.0
2018-Apr-18 14:44N 54°09' E 012°07'0 0.0
2018-Apr-18 14:26N 54°09' E 012°07'0 0.0
2018-Apr-18 13:44N 54°09' E 012°07'0 0.0
2018-Apr-18 13:29N 54°09' E 012°07'0 0.0
2018-Apr-18 12:59N 54°09' E 012°07'0 0.0
2018-Apr-18 11:11N 54°09' E 012°07'0 0.0
2018-Apr-18 10:59N 54°09' E 012°07'0 0.0
2018-Apr-18 10:20N 54°09' E 012°07'0 0.0
2018-Apr-18 09:56N 54°09' E 012°07'0 0.3
2018-Apr-18 09:27N 54°09' E 012°07'2 5.3
2018-Apr-18 09:01N 54°11' E 012°05'6 5.0
2018-Apr-18 07:45N 54°16' E 011°58'1 3.6
2018-Apr-18 07:30N 54°17' E 011°57'2 3.9
2018-Apr-18 07:00N 54°18' E 011°54'4 5.3
2018-Apr-18 06:17N 54°20' E 011°49'3 7.9
2018-Apr-18 05:53N 54°22' E 011°44'4 8.8
2018-Apr-18 05:26N 54°24' E 011°39'4 9.1
2018-Apr-18 05:00N 54°26' E 011°33'5 9.7
2018-Apr-18 04:30N 54°29' E 011°27'5 9.4
2018-Apr-18 04:00N 54°32' E 011°20'5 9.9
2018-Apr-18 03:30N 54°34' E 011°12'5 9.6
2018-Apr-18 03:00N 54°35' E 011°04'5 9.4
2018-Apr-18 02:30N 54°34' E 010°56'5 9.4
2018-Apr-18 02:00N 54°34' E 010°48'5 9.3
2018-Apr-18 01:30N 54°33' E 010°40'5 9.3
2018-Apr-18 01:00N 54°32' E 010°32'28 6.1
2018-Apr-17 20:25N 54°22' E 009°48'2 3.9
2018-Apr-17 20:00N 54°21' E 009°46'2 3.4
2018-Apr-17 19:30N 54°20' E 009°43'3 5.4
2018-Apr-17 19:00N 54°18' E 009°41'0 0.0
2018-Apr-17 18:29N 54°18' E 009°41'0 0.0
2018-Apr-17 17:56N 54°18' E 009°41'0 0.0
2018-Apr-17 17:29N 54°18' E 009°41'0 0.0
2018-Apr-17 16:59N 54°18' E 009°41'0 0.0
2018-Apr-17 16:29N 54°18' E 009°41'0 0.0
2018-Apr-17 15:59N 54°18' E 009°41'0 0.0
2018-Apr-17 15:29N 54°18' E 009°41'0 0.0
2018-Apr-17 14:59N 54°18' E 009°41'0 0.0
2018-Apr-17 14:29N 54°18' E 009°41'0 0.0
2018-Apr-17 13:56N 54°18' E 009°41'0 0.0
2018-Apr-17 13:29N 54°18' E 009°41'0 0.0
2018-Apr-17 12:59N 54°18' E 009°41'0 0.0
2018-Apr-17 12:29N 54°18' E 009°41'0 0.0
2018-Apr-17 11:59N 54°18' E 009°41'0 0.0
2018-Apr-17 11:29N 54°18' E 009°41'0 0.0
2018-Apr-17 10:59N 54°18' E 009°41'0 0.0
2018-Apr-17 10:29N 54°18' E 009°41'0 0.0
2018-Apr-17 09:56N 54°18' E 009°41'0 0.0
2018-Apr-17 09:29N 54°18' E 009°41'0 0.0
2018-Apr-17 08:59N 54°18' E 009°41'0 0.0
2018-Apr-17 08:29N 54°18' E 009°41'0 0.0
2018-Apr-17 07:59N 54°18' E 009°41'0 0.0
2018-Apr-17 07:26N 54°18' E 009°41'0 0.0
2018-Apr-17 06:59N 54°18' E 009°41'0 0.0
2018-Apr-17 06:29N 54°18' E 009°41'0 0.0
2018-Apr-17 05:59N 54°18' E 009°41'0 0.0
2018-Apr-17 05:29N 54°18' E 009°41'0 0.0
2018-Apr-17 04:59N 54°18' E 009°41'0 0.0
2018-Apr-17 04:29N 54°18' E 009°41'0 0.0
2018-Apr-17 03:59N 54°18' E 009°41'0 0.0
2018-Apr-17 03:29N 54°18' E 009°41'0 0.0
2018-Apr-17 02:56N 54°18' E 009°41'0 0.0
2018-Apr-17 02:29N 54°18' E 009°41'0 0.0
2018-Apr-17 01:59N 54°18' E 009°41'0 0.0
2018-Apr-17 01:29N 54°18' E 009°41'0 0.0
2018-Apr-17 00:59N 54°18' E 009°41'0 0.0
2018-Apr-17 00:26N 54°18' E 009°41'0 0.0
2018-Apr-16 23:59N 54°18' E 009°41'0 0.0
2018-Apr-16 23:29N 54°18' E 009°41'0 0.0
2018-Apr-16 22:59N 54°18' E 009°41'0 0.0
2018-Apr-16 22:29N 54°18' E 009°41'0 0.0
2018-Apr-16 21:59N 54°18' E 009°41'0 0.0
2018-Apr-16 21:29N 54°18' E 009°41'0 0.0
2018-Apr-16 20:59N 54°18' E 009°41'0 0.0
2018-Apr-16 20:26N 54°18' E 009°41'0 0.0
2018-Apr-16 19:59N 54°18' E 009°41'0 0.0
2018-Apr-16 19:29N 54°18' E 009°41'0 0.0
2018-Apr-16 18:59N 54°18' E 009°41'0 0.0
2018-Apr-16 18:29N 54°18' E 009°41'0 0.0
2018-Apr-16 17:59N 54°18' E 009°41'0 0.0
2018-Apr-16 17:29N 54°18' E 009°41'0 0.0
2018-Apr-16 16:59N 54°18' E 009°41'0 0.0
2018-Apr-16 16:29N 54°18' E 009°41'0 0.0
2018-Apr-16 15:59N 54°18' E 009°41'0 0.0
2018-Apr-16 15:29N 54°18' E 009°41'0 0.0
2018-Apr-16 14:59N 54°18' E 009°41'0 0.1
2018-Apr-16 14:29N 54°18' E 009°41'0 0.0
2018-Apr-16 13:59N 54°18' E 009°41'0 0.0
2018-Apr-16 13:26N 54°18' E 009°41'0 0.0
2018-Apr-16 12:59N 54°18' E 009°41'0 0.0
2018-Apr-16 12:26N 54°18' E 009°41'0 0.1
2018-Apr-16 12:00N 54°18' E 009°41'2 4.3
2018-Apr-16 11:30N 54°19' E 009°43'0 0.6
2018-Apr-16 11:01N 54°20' E 009°43'2 3.4
2018-Apr-16 10:30N 54°21' E 009°45'3 6.7
2018-Apr-16 10:00N 54°22' E 009°51'22 5.1
2018-Apr-16 05:45N 54°31' E 010°24'3 5.9
2018-Apr-16 05:12N 54°33' E 010°29'1 5.8
2018-Apr-16 04:59N 54°33' E 010°31'3 5.6
2018-Apr-16 04:30N 54°34' E 010°35'3 5.9
2018-Apr-16 04:00N 54°35' E 010°40'3 6.0
2018-Apr-16 03:30N 54°35' E 010°45'3 5.9
2018-Apr-16 03:00N 54°35' E 010°50'3 5.9
2018-Apr-16 02:30N 54°36' E 010°56'3 6.0
2018-Apr-16 02:00N 54°36' E 011°01'3 6.1
2018-Apr-16 01:30N 54°36' E 011°06'3 6.1
2018-Apr-16 01:00N 54°36' E 011°11'3 6.4
2018-Apr-16 00:30N 54°34' E 011°16'3 6.4
2018-Apr-16 00:00N 54°33' E 011°21'3 6.1
2018-Apr-15 23:30N 54°32' E 011°26'3 6.2
2018-Apr-15 23:00N 54°31' E 011°31'3 6.3
2018-Apr-15 22:30N 54°30' E 011°36'3 6.6
2018-Apr-15 22:00N 54°28' E 011°41'3 6.6
2018-Apr-15 21:30N 54°27' E 011°47'3 6.5
2018-Apr-15 21:00N 54°27' E 011°52'3 6.6
2018-Apr-15 20:30N 54°27' E 011°58'3 6.5
2018-Apr-15 20:00N 54°27' E 012°03'3 6.3
2018-Apr-15 19:30N 54°28' E 012°09'3 5.7
2018-Apr-15 19:00N 54°30' E 012°11'66 6.6
2018-Apr-15 08:55N 55°02' E 013°52'4 6.5
2018-Apr-15 08:14N 55°03' E 013°59'2 6.7
2018-Apr-15 07:54N 55°04' E 014°03'4 6.4
2018-Apr-15 07:11N 55°07' E 014°08'3 6.3
2018-Apr-15 06:43N 55°09' E 014°11'1 6.4
2018-Apr-15 06:30N 55°11' E 014°13'4 6.6
2018-Apr-15 05:51N 55°14' E 014°18'4 6.7
2018-Apr-15 05:11N 55°17' E 014°23'1 6.6
2018-Apr-15 04:59N 55°18' E 014°25'4 6.7
2018-Apr-15 04:21N 55°21' E 014°30'2 7.0
2018-Apr-15 04:00N 55°23' E 014°32'3 6.8
2018-Apr-15 03:30N 55°26' E 014°36'4 6.8
2018-Apr-15 02:53N 55°28' E 014°43'3 6.4
2018-Apr-15 02:28N 55°29' E 014°47'4 6.4
2018-Apr-15 01:52N 55°31' E 014°53'4 6.6
2018-Apr-15 01:19N 55°32' E 014°59'2 6.7
2018-Apr-15 01:00N 55°33' E 015°02'5 6.8
2018-Apr-15 00:18N 55°36' E 015°10'2 6.8
2018-Apr-15 00:00N 55°37' E 015°13'3 6.8
2018-Apr-14 23:30N 55°37' E 015°19'  

Dump ship's entire track history